createdAt,value
2023-08-11T00:00:22.630Z,17.23
2023-08-11T00:02:53.183Z,17.21
2023-08-11T00:05:20.259Z,17.20
2023-08-11T00:07:51.375Z,17.20
2023-08-11T00:10:19.157Z,17.15
2023-08-11T00:12:46.543Z,17.13
2023-08-11T00:15:16.239Z,17.12
2023-08-11T00:17:42.962Z,17.09
2023-08-11T00:20:10.018Z,17.05
2023-08-11T00:22:38.970Z,17.06
2023-08-11T00:25:06.847Z,17.06
2023-08-11T00:27:33.381Z,17.02
2023-08-11T00:29:59.889Z,17.02
2023-08-11T00:32:26.503Z,16.99
2023-08-11T00:34:53.207Z,16.98
2023-08-11T00:37:20.368Z,16.99
2023-08-11T00:39:47.162Z,17.00
2023-08-11T00:42:14.052Z,17.00
2023-08-11T00:44:41.103Z,16.97
2023-08-11T00:47:08.034Z,16.96
2023-08-11T00:49:35.482Z,16.92
2023-08-11T00:52:02.596Z,16.88
2023-08-11T00:54:29.805Z,16.85
2023-08-11T00:56:57.067Z,16.83
2023-08-11T00:59:24.296Z,16.79
2023-08-11T01:01:50.853Z,16.74
2023-08-11T01:04:18.189Z,16.73
2023-08-11T01:06:49.098Z,16.71
2023-08-11T01:09:31.971Z,16.67
2023-08-11T01:12:32.240Z,16.65
2023-08-11T01:15:35.232Z,16.64
2023-08-11T01:18:04.310Z,16.62
2023-08-11T01:20:33.372Z,16.56
2023-08-11T01:23:01.603Z,16.53
2023-08-11T01:25:29.063Z,16.53
2023-08-11T01:27:57.932Z,16.52
2023-08-11T01:30:29.633Z,16.51
2023-08-11T01:32:57.542Z,16.45
2023-08-11T01:35:38.284Z,16.40
2023-08-11T01:38:07.601Z,16.37
2023-08-11T01:40:34.379Z,16.39
2023-08-11T01:43:03.676Z,16.38
2023-08-11T01:45:30.876Z,16.33
2023-08-11T01:47:57.742Z,16.30
2023-08-11T01:50:25.709Z,16.33
2023-08-11T01:52:53.201Z,16.36
2023-08-11T01:55:19.810Z,16.37
2023-08-11T01:57:57.495Z,16.33
2023-08-11T02:00:26.227Z,16.34
2023-08-11T02:02:53.812Z,16.27
2023-08-11T02:05:20.597Z,16.25
2023-08-11T02:07:47.251Z,16.23
2023-08-11T02:10:14.061Z,16.23
2023-08-11T02:12:41.806Z,16.23
2023-08-11T02:15:09.072Z,16.17
2023-08-11T02:17:36.190Z,16.09
2023-08-11T02:20:18.155Z,16.09
2023-08-11T02:22:45.136Z,16.07
2023-08-11T02:25:11.827Z,16.05
2023-08-11T02:27:38.411Z,16.01
2023-08-11T02:30:06.454Z,15.97
2023-08-11T02:32:33.394Z,15.98
2023-08-11T02:35:00.124Z,15.96
2023-08-11T02:37:26.774Z,15.93
2023-08-11T02:39:53.279Z,15.85
2023-08-11T02:42:20.078Z,15.84
2023-08-11T02:44:46.662Z,15.84
2023-08-11T02:47:13.387Z,15.83
2023-08-11T02:49:40.000Z,15.83
2023-08-11T02:52:06.814Z,15.75
2023-08-11T02:54:33.865Z,15.73
2023-08-11T02:57:00.473Z,15.73
2023-08-11T02:59:27.148Z,15.71
2023-08-11T03:01:53.629Z,15.72
2023-08-11T03:04:20.143Z,15.61
2023-08-11T03:06:47.741Z,15.58
2023-08-11T03:09:14.549Z,15.57
2023-08-11T03:11:42.510Z,15.58
2023-08-11T03:14:09.008Z,15.57
2023-08-11T03:16:35.620Z,15.57
2023-08-11T03:19:02.216Z,15.55
2023-08-11T03:21:28.711Z,15.53
2023-08-11T03:23:55.711Z,15.51
2023-08-11T03:26:22.227Z,15.45
2023-08-11T03:28:48.943Z,15.45
2023-08-11T03:31:15.633Z,15.48
2023-08-11T03:33:42.307Z,15.41
2023-08-11T03:36:09.175Z,15.40
2023-08-11T03:38:35.693Z,15.36
2023-08-11T03:41:02.374Z,15.37
2023-08-11T03:43:29.069Z,15.38
2023-08-11T03:45:55.629Z,15.39
2023-08-11T03:48:22.117Z,15.38
2023-08-11T03:50:48.693Z,15.39
2023-08-11T03:53:15.436Z,15.36
2023-08-11T03:55:46.971Z,15.37
2023-08-11T03:58:16.257Z,15.37
2023-08-11T04:00:43.292Z,15.32
2023-08-11T04:03:10.599Z,15.25
2023-08-11T04:05:37.859Z,15.25
2023-08-11T04:08:07.603Z,15.26
2023-08-11T04:10:38.629Z,15.22
2023-08-11T04:13:06.189Z,15.19
2023-08-11T04:15:32.700Z,15.19
2023-08-11T04:17:59.367Z,15.19
2023-08-11T04:20:26.103Z,15.20
2023-08-11T04:22:52.594Z,15.20
2023-08-11T04:25:19.828Z,15.21
2023-08-11T04:27:46.334Z,15.19
2023-08-11T04:30:13.666Z,15.17
2023-08-11T04:32:40.685Z,15.17
2023-08-11T04:35:08.962Z,15.17
2023-08-11T04:37:36.205Z,15.18
2023-08-11T04:40:07.882Z,15.17
2023-08-11T04:42:35.366Z,15.16
2023-08-11T04:45:02.436Z,15.17
2023-08-11T04:47:29.177Z,15.17
2023-08-11T04:49:56.311Z,15.15
2023-08-11T04:52:23.277Z,15.16
2023-08-11T04:54:50.088Z,15.18
2023-08-11T04:57:16.672Z,15.17
2023-08-11T04:59:43.163Z,15.19
2023-08-11T05:02:09.949Z,15.18
2023-08-11T05:04:36.735Z,15.18
2023-08-11T05:07:03.537Z,15.19
2023-08-11T05:09:30.008Z,15.20
2023-08-11T05:11:56.580Z,15.19
2023-08-11T05:14:24.348Z,15.22
2023-08-11T05:16:51.071Z,15.22
2023-08-11T05:19:17.658Z,15.22
2023-08-11T05:21:44.380Z,15.23
2023-08-11T05:24:11.698Z,15.30
2023-08-11T05:26:38.806Z,15.32
2023-08-11T05:29:05.814Z,15.37
2023-08-11T05:31:32.789Z,15.39
2023-08-11T05:33:59.445Z,15.41
2023-08-11T05:36:26.005Z,15.46
2023-08-11T05:38:52.681Z,15.50
2023-08-11T05:41:19.459Z,15.51
2023-08-11T05:43:46.007Z,15.54
2023-08-11T05:46:12.828Z,15.60
2023-08-11T05:48:39.346Z,15.68
2023-08-11T05:51:05.962Z,15.75
2023-08-11T05:53:32.956Z,15.81
2023-08-11T05:55:59.770Z,15.87
2023-08-11T05:58:27.830Z,15.91
2023-08-11T06:00:54.409Z,15.96
2023-08-11T06:03:20.899Z,15.98
2023-08-11T06:05:47.752Z,16.02
2023-08-11T06:08:14.342Z,16.05
2023-08-11T06:10:41.269Z,16.10
2023-08-11T06:13:08.265Z,16.24
2023-08-11T06:15:34.781Z,16.33
2023-08-11T06:18:01.308Z,16.39
2023-08-11T06:20:40.293Z,16.40
2023-08-11T06:23:08.929Z,16.52
2023-08-11T06:25:35.700Z,16.55
2023-08-11T06:28:02.863Z,16.67
2023-08-11T06:30:30.082Z,16.78
2023-08-11T06:32:57.408Z,16.80
2023-08-11T06:35:24.198Z,16.82
2023-08-11T06:37:50.730Z,16.89
2023-08-11T06:40:17.330Z,16.95
2023-08-11T06:42:44.290Z,16.99
2023-08-11T06:45:11.408Z,17.09
2023-08-11T06:47:38.468Z,17.18
2023-08-11T06:50:05.542Z,17.21
2023-08-11T06:52:32.035Z,17.24
2023-08-11T06:54:59.194Z,17.31
2023-08-11T06:57:25.767Z,17.41
2023-08-11T06:59:52.439Z,17.43
2023-08-11T07:02:19.107Z,17.60
2023-08-11T07:04:46.210Z,17.75
2023-08-11T07:07:12.924Z,17.77
2023-08-11T07:09:39.454Z,17.83
2023-08-11T07:12:06.855Z,17.99
2023-08-11T07:14:33.426Z,18.06
2023-08-11T07:17:00.314Z,18.09
2023-08-11T07:19:27.136Z,18.15
2023-08-11T07:21:53.619Z,18.17
2023-08-11T07:24:20.156Z,18.18
2023-08-11T07:26:46.596Z,18.29
2023-08-11T07:29:13.215Z,18.36
2023-08-11T07:31:40.754Z,18.38
2023-08-11T07:34:07.546Z,18.49
2023-08-11T07:36:34.205Z,18.64
2023-08-11T07:39:20.663Z,18.71
2023-08-11T07:41:47.877Z,18.84
2023-08-11T07:44:15.954Z,18.98
2023-08-11T07:46:42.766Z,19.04
2023-08-11T07:49:09.342Z,19.13
2023-08-11T07:51:35.926Z,19.13
2023-08-11T07:54:02.594Z,19.30
2023-08-11T07:56:29.351Z,19.42
2023-08-11T07:58:55.867Z,19.47
2023-08-11T08:01:26.159Z,19.56
2023-08-11T08:03:52.796Z,19.64
2023-08-11T08:06:19.690Z,19.65
2023-08-11T08:08:46.279Z,19.65
2023-08-11T08:11:12.813Z,19.86
2023-08-11T08:13:39.359Z,19.92
2023-08-11T08:16:06.009Z,20.05
2023-08-11T08:18:32.730Z,20.12
2023-08-11T08:20:59.228Z,20.25
2023-08-11T08:23:25.918Z,20.27
2023-08-11T08:25:52.386Z,20.42
2023-08-11T08:28:18.872Z,20.48
2023-08-11T08:30:45.707Z,20.43
2023-08-11T08:33:12.240Z,20.51
2023-08-11T08:35:38.925Z,20.57
2023-08-11T08:38:06.249Z,20.70
2023-08-11T08:40:35.835Z,20.77
2023-08-11T08:43:04.889Z,20.83
2023-08-11T08:45:33.102Z,20.87
2023-08-11T08:48:01.071Z,20.98
2023-08-11T08:50:28.130Z,21.17
2023-08-11T08:52:54.931Z,21.27
2023-08-11T08:55:22.474Z,21.36
2023-08-11T08:57:49.172Z,21.54
2023-08-11T09:00:15.935Z,21.63
2023-08-11T09:02:43.426Z,21.77
2023-08-11T09:05:10.263Z,21.83
2023-08-11T09:07:36.871Z,22.00
2023-08-11T09:10:03.838Z,22.15
2023-08-11T09:12:30.489Z,22.32
2023-08-11T09:14:57.418Z,22.36
2023-08-11T09:17:25.691Z,22.32
2023-08-11T09:19:53.407Z,22.39
2023-08-11T09:22:26.528Z,22.50
2023-08-11T09:24:55.290Z,22.62
2023-08-11T09:27:22.989Z,22.71
2023-08-11T09:29:51.043Z,22.93
2023-08-11T09:32:17.898Z,23.04
2023-08-11T09:34:45.061Z,23.03
2023-08-11T09:37:12.421Z,22.99
2023-08-11T09:39:39.283Z,23.02
2023-08-11T09:42:06.143Z,23.23
2023-08-11T09:44:32.661Z,23.39
2023-08-11T09:47:11.914Z,23.53
2023-08-11T09:49:42.928Z,23.65
2023-08-11T09:52:11.401Z,23.77
2023-08-11T09:54:39.109Z,23.93
2023-08-11T09:57:07.689Z,24.06
2023-08-11T09:59:35.613Z,24.15
2023-08-11T10:02:03.874Z,24.16
2023-08-11T10:04:33.277Z,24.22
2023-08-11T10:07:02.507Z,24.39
2023-08-11T10:09:33.107Z,24.47
2023-08-11T10:12:00.714Z,24.55
2023-08-11T10:14:29.253Z,24.65
2023-08-11T10:16:56.386Z,24.74
2023-08-11T10:19:23.404Z,24.94
2023-08-11T10:21:50.122Z,24.93
2023-08-11T10:24:17.059Z,24.87
2023-08-11T10:26:44.314Z,24.82
2023-08-11T10:29:13.134Z,24.99
2023-08-11T10:31:57.312Z,25.06
2023-08-11T10:34:25.065Z,25.25
2023-08-11T10:36:54.721Z,25.44
2023-08-11T10:39:21.851Z,25.44
2023-08-11T10:41:50.954Z,25.51
2023-08-11T10:44:27.465Z,25.62
2023-08-11T10:46:54.095Z,25.81
2023-08-11T10:49:33.288Z,25.73
2023-08-11T10:52:01.777Z,25.90
2023-08-11T10:54:28.509Z,25.99
2023-08-11T10:56:55.346Z,26.09
2023-08-11T10:59:32.587Z,26.28
2023-08-11T11:02:03.036Z,26.35
2023-08-11T11:04:32.026Z,26.41
2023-08-11T11:07:00.471Z,26.57
2023-08-11T11:09:31.255Z,26.65
2023-08-11T11:11:57.909Z,26.63
2023-08-11T11:14:27.653Z,26.81
2023-08-11T11:16:59.883Z,26.83
2023-08-11T11:19:27.501Z,26.86
2023-08-11T11:21:54.166Z,26.91
2023-08-11T11:24:21.011Z,26.96
2023-08-11T11:26:47.790Z,27.20
2023-08-11T11:29:14.360Z,27.22
2023-08-11T11:31:41.480Z,27.21
2023-08-11T11:34:08.645Z,27.37
2023-08-11T11:36:35.529Z,27.43
2023-08-11T11:39:05.304Z,27.29
2023-08-11T11:41:32.502Z,27.53
2023-08-11T11:44:00.307Z,27.75
2023-08-11T11:46:27.747Z,27.77
2023-08-11T11:48:55.584Z,27.75
2023-08-11T11:51:26.859Z,27.78
2023-08-11T11:53:55.778Z,27.72
2023-08-11T11:56:23.072Z,27.86
2023-08-11T11:58:50.236Z,27.94
2023-08-11T12:01:28.413Z,27.97
2023-08-11T12:03:59.451Z,28.06
2023-08-11T12:06:28.703Z,28.28
2023-08-11T12:09:01.879Z,28.38
2023-08-11T12:11:28.885Z,28.39
2023-08-11T12:13:55.512Z,28.36
2023-08-11T12:16:22.521Z,28.22
2023-08-11T12:18:49.209Z,28.06
2023-08-11T12:21:17.943Z,28.15
2023-08-11T12:23:44.560Z,28.10
2023-08-11T12:26:11.324Z,28.06
2023-08-11T12:28:37.999Z,28.17
2023-08-11T12:31:04.563Z,28.36
2023-08-11T12:33:31.232Z,28.54
2023-08-11T12:35:57.802Z,28.48
2023-08-11T12:38:25.453Z,28.39
2023-08-11T12:40:52.089Z,28.33
2023-08-11T12:43:19.228Z,28.19
2023-08-11T12:45:46.300Z,28.16
2023-08-11T12:48:14.269Z,28.16
2023-08-11T12:50:41.714Z,28.08
2023-08-11T12:53:08.802Z,28.01
2023-08-11T12:55:38.520Z,27.90
2023-08-11T12:58:05.772Z,27.84
2023-08-11T13:00:34.246Z,27.97
2023-08-11T13:03:00.978Z,27.90
2023-08-11T13:05:28.124Z,27.85
2023-08-11T13:07:54.889Z,27.71
2023-08-11T13:10:22.486Z,27.71
2023-08-11T13:12:50.230Z,27.68
2023-08-11T13:15:16.914Z,27.66
2023-08-11T13:17:45.668Z,27.57
2023-08-11T13:20:13.450Z,27.55
2023-08-11T13:22:40.945Z,27.51
2023-08-11T13:25:08.026Z,27.51
2023-08-11T13:27:34.941Z,27.51
2023-08-11T13:30:01.471Z,27.53
2023-08-11T13:32:28.239Z,27.55
2023-08-11T13:34:54.751Z,27.39
2023-08-11T13:37:21.257Z,27.31
2023-08-11T13:39:47.707Z,27.30
2023-08-11T13:42:14.284Z,27.38
2023-08-11T13:44:40.888Z,27.54
2023-08-11T13:47:07.702Z,27.68
2023-08-11T13:49:34.754Z,27.88
2023-08-11T13:52:01.341Z,27.81
2023-08-11T13:54:28.999Z,27.81
2023-08-11T13:56:55.660Z,27.83
2023-08-11T13:59:22.362Z,27.79
2023-08-11T14:01:48.994Z,27.83
2023-08-11T14:04:15.606Z,27.90
2023-08-11T14:06:42.093Z,27.89
2023-08-11T14:09:08.804Z,27.77
2023-08-11T14:11:35.418Z,27.62
2023-08-11T14:14:01.905Z,27.56
2023-08-11T14:16:28.438Z,27.48
2023-08-11T14:18:56.651Z,27.48
2023-08-11T14:21:24.021Z,27.38
2023-08-11T14:23:51.641Z,27.25
2023-08-11T14:26:18.457Z,27.20
2023-08-11T14:28:45.453Z,27.24
2023-08-11T14:31:12.316Z,27.21
2023-08-11T14:33:42.045Z,27.19
2023-08-11T14:36:12.943Z,27.20
2023-08-11T14:38:40.438Z,27.21
2023-08-11T14:41:07.872Z,27.07
2023-08-11T14:43:35.043Z,27.03
2023-08-11T14:46:01.870Z,26.98
2023-08-11T14:48:28.553Z,26.83
2023-08-11T14:50:55.548Z,26.76
2023-08-11T14:53:24.223Z,26.67
2023-08-11T14:55:50.862Z,26.60
2023-08-11T14:58:18.548Z,26.47
2023-08-11T15:00:45.154Z,26.50
2023-08-11T15:03:12.063Z,26.49
2023-08-11T15:05:38.860Z,26.43
2023-08-11T15:08:06.403Z,26.34
2023-08-11T15:10:33.273Z,26.29
2023-08-11T15:13:01.206Z,26.22
2023-08-11T15:15:27.950Z,26.12
2023-08-11T15:17:54.632Z,26.00
2023-08-11T15:20:22.584Z,25.95
2023-08-11T15:22:50.958Z,25.82
2023-08-11T15:25:18.005Z,25.75
2023-08-11T15:27:45.158Z,25.74
2023-08-11T15:30:12.481Z,25.72
2023-08-11T15:32:40.167Z,25.69
2023-08-11T15:35:07.576Z,25.61
2023-08-11T15:37:34.025Z,25.61
2023-08-11T15:40:00.623Z,25.50
2023-08-11T15:42:28.115Z,25.43
2023-08-11T15:44:54.657Z,25.34
2023-08-11T15:47:21.217Z,25.28
2023-08-11T15:49:47.732Z,25.24
2023-08-11T15:52:14.400Z,25.10
2023-08-11T15:54:40.973Z,24.97
2023-08-11T15:57:07.822Z,24.96
2023-08-11T15:59:34.447Z,24.97
2023-08-11T16:02:10.176Z,24.96
2023-08-11T16:04:37.874Z,24.96
2023-08-11T16:07:04.573Z,24.93
2023-08-11T16:09:31.110Z,24.86
2023-08-11T16:11:57.733Z,24.85
2023-08-11T16:14:28.174Z,24.90
2023-08-11T16:16:55.353Z,24.90
2023-08-11T16:19:21.934Z,24.88
2023-08-11T16:21:48.775Z,24.86
2023-08-11T16:24:15.503Z,24.82
2023-08-11T16:26:42.168Z,24.78
2023-08-11T16:29:08.685Z,24.80
2023-08-11T16:31:35.237Z,24.74
2023-08-11T16:34:01.724Z,24.71
2023-08-11T16:36:28.911Z,24.63
2023-08-11T16:38:55.471Z,24.58
2023-08-11T16:41:22.235Z,24.60
2023-08-11T16:43:51.146Z,24.56
2023-08-11T16:46:19.755Z,24.50
2023-08-11T16:48:46.299Z,24.39
2023-08-11T16:51:15.197Z,24.34
2023-08-11T16:53:42.616Z,24.22
2023-08-11T16:56:09.364Z,24.17
2023-08-11T16:58:37.085Z,24.09
2023-08-11T17:01:03.741Z,24.03
2023-08-11T17:03:30.592Z,24.00
2023-08-11T17:05:57.427Z,23.98
2023-08-11T17:08:24.249Z,23.92
2023-08-11T17:10:50.944Z,23.87
2023-08-11T17:13:17.471Z,23.79
2023-08-11T17:15:44.259Z,23.73
2023-08-11T17:18:10.919Z,23.67
2023-08-11T17:20:38.436Z,23.64
2023-08-11T17:23:05.249Z,23.61
2023-08-11T17:25:31.765Z,23.52
2023-08-11T17:27:58.220Z,23.45
2023-08-11T17:30:24.805Z,23.47
2023-08-11T17:32:51.461Z,23.45
2023-08-11T17:35:18.088Z,23.44
2023-08-11T17:37:44.551Z,23.43
2023-08-11T17:40:11.298Z,23.39
2023-08-11T17:42:37.867Z,23.37
2023-08-11T17:45:04.826Z,23.33
2023-08-11T17:47:31.348Z,23.25
2023-08-11T17:49:57.866Z,23.15
2023-08-11T17:52:24.424Z,23.10
2023-08-11T17:54:51.027Z,23.06
2023-08-11T17:57:17.545Z,23.01
2023-08-11T17:59:44.064Z,22.95
2023-08-11T18:02:11.056Z,22.82
2023-08-11T18:04:37.750Z,22.81
2023-08-11T18:07:04.679Z,22.74
2023-08-11T18:09:31.324Z,22.67
2023-08-11T18:11:57.795Z,22.66
2023-08-11T18:14:24.461Z,22.64
2023-08-11T18:16:50.945Z,22.61
2023-08-11T18:19:17.480Z,22.54
2023-08-11T18:21:44.073Z,22.52
2023-08-11T18:24:11.289Z,22.49
2023-08-11T18:26:38.051Z,22.45
2023-08-11T18:29:05.106Z,22.39
2023-08-11T18:31:31.758Z,22.37
2023-08-11T18:34:01.505Z,22.31
2023-08-11T18:36:28.301Z,22.31
2023-08-11T18:38:54.926Z,22.31
2023-08-11T18:41:21.506Z,22.27
2023-08-11T18:43:47.970Z,22.26
2023-08-11T18:46:14.584Z,22.23
2023-08-11T18:48:41.102Z,22.20
2023-08-11T18:51:07.651Z,22.22
2023-08-11T18:53:34.126Z,22.28
2023-08-11T18:56:00.895Z,22.23
2023-08-11T18:58:27.358Z,22.19
2023-08-11T19:00:53.977Z,22.17
2023-08-11T19:03:20.679Z,22.14
2023-08-11T19:05:47.286Z,22.10
2023-08-11T19:08:13.810Z,22.05
2023-08-11T19:10:40.285Z,22.05
2023-08-11T19:13:06.932Z,22.04
2023-08-11T19:15:34.724Z,21.99
2023-08-11T19:18:01.366Z,21.96
2023-08-11T19:20:27.851Z,21.94
2023-08-11T19:22:54.518Z,21.92
2023-08-11T19:25:20.898Z,21.90
2023-08-11T19:27:47.458Z,21.89
2023-08-11T19:30:14.256Z,21.87
2023-08-11T19:32:41.075Z,21.89
2023-08-11T19:35:08.061Z,21.87
2023-08-11T19:37:34.749Z,21.87
2023-08-11T19:40:01.407Z,21.81
2023-08-11T19:42:27.940Z,21.77
2023-08-11T19:44:54.648Z,21.75
2023-08-11T19:47:22.758Z,21.72
2023-08-11T19:49:49.624Z,21.69
2023-08-11T19:52:20.231Z,21.69
2023-08-11T19:54:47.735Z,21.67
2023-08-11T19:57:14.535Z,21.67
2023-08-11T19:59:44.855Z,21.63
2023-08-11T20:02:11.766Z,21.60
2023-08-11T20:04:38.525Z,21.58
2023-08-11T20:07:05.774Z,21.57
2023-08-11T20:09:36.077Z,21.57
2023-08-11T20:12:03.841Z,21.55
2023-08-11T20:14:30.292Z,21.54
2023-08-11T20:16:56.793Z,21.52
2023-08-11T20:19:25.290Z,21.49
2023-08-11T20:21:51.956Z,21.47
2023-08-11T20:24:18.548Z,21.44
2023-08-11T20:26:45.153Z,21.46
2023-08-11T20:29:12.973Z,21.43
2023-08-11T20:31:39.471Z,21.42
2023-08-11T20:34:06.069Z,21.42
2023-08-11T20:36:32.601Z,21.42
2023-08-11T20:38:59.142Z,21.40
2023-08-11T20:41:25.698Z,21.31
2023-08-11T20:43:52.258Z,21.26
2023-08-11T20:46:19.489Z,21.26
2023-08-11T20:48:46.276Z,21.26
2023-08-11T20:51:12.956Z,21.23
2023-08-11T20:53:39.574Z,21.19
2023-08-11T20:56:06.306Z,21.14
2023-08-11T20:58:32.849Z,21.05
2023-08-11T21:00:59.756Z,21.05
2023-08-11T21:03:26.850Z,21.10
2023-08-11T21:05:56.565Z,21.08
2023-08-11T21:08:23.501Z,21.00
2023-08-11T21:10:50.702Z,20.99
2023-08-11T21:13:17.326Z,20.97
2023-08-11T21:15:46.607Z,20.92
2023-08-11T21:18:13.365Z,20.85
2023-08-11T21:20:39.918Z,20.84
2023-08-11T21:23:07.304Z,20.85
2023-08-11T21:25:34.744Z,20.85
2023-08-11T21:28:01.321Z,20.85
2023-08-11T21:30:30.354Z,20.79
2023-08-11T21:32:56.887Z,20.72
2023-08-11T21:35:23.444Z,20.74
2023-08-11T21:37:50.226Z,20.74
2023-08-11T21:40:17.233Z,20.77
2023-08-11T21:42:44.521Z,20.74
2023-08-11T21:45:11.628Z,20.72
2023-08-11T21:47:38.333Z,20.70
2023-08-11T21:50:05.267Z,20.70
2023-08-11T21:52:31.804Z,20.64
2023-08-11T21:54:58.260Z,20.61
2023-08-11T21:57:24.925Z,20.58
2023-08-11T21:59:51.693Z,20.62
2023-08-11T22:02:18.161Z,20.59
2023-08-11T22:04:46.453Z,20.60
2023-08-11T22:07:13.832Z,20.58
2023-08-11T22:09:40.910Z,20.54
2023-08-11T22:12:07.749Z,20.54
2023-08-11T22:14:35.019Z,20.49
2023-08-11T22:17:01.753Z,20.39
2023-08-11T22:19:30.718Z,20.26
2023-08-11T22:21:57.966Z,20.18
2023-08-11T22:24:34.974Z,20.13
2023-08-11T22:27:05.892Z,20.12
2023-08-11T22:29:32.418Z,20.15
2023-08-11T22:31:58.889Z,20.12
2023-08-11T22:34:25.548Z,20.10
2023-08-11T22:36:52.365Z,20.15
2023-08-11T22:39:18.932Z,20.15
2023-08-11T22:41:45.545Z,20.10
2023-08-11T22:44:12.061Z,20.05
2023-08-11T22:46:38.566Z,20.05
2023-08-11T22:49:05.261Z,20.03
2023-08-11T22:51:31.934Z,20.03
2023-08-11T22:53:58.449Z,20.00
2023-08-11T22:56:24.911Z,20.00
2023-08-11T22:58:57.452Z,20.02
2023-08-11T23:01:24.362Z,20.04
2023-08-11T23:03:51.020Z,19.99
2023-08-11T23:06:17.780Z,20.00
2023-08-11T23:08:44.284Z,20.02
2023-08-11T23:11:10.863Z,20.02
2023-08-11T23:13:37.278Z,20.02
2023-08-11T23:16:04.149Z,20.00
2023-08-11T23:18:30.757Z,20.01
2023-08-11T23:20:57.229Z,20.03
2023-08-11T23:23:23.740Z,20.02
2023-08-11T23:25:50.487Z,20.00
2023-08-11T23:28:17.282Z,19.99
2023-08-11T23:30:43.931Z,19.98
2023-08-11T23:33:10.647Z,19.96
2023-08-11T23:35:38.818Z,19.95
2023-08-11T23:38:06.258Z,19.93
2023-08-11T23:40:33.199Z,19.87
2023-08-11T23:42:59.781Z,19.86
2023-08-11T23:45:26.525Z,19.85
2023-08-11T23:47:53.542Z,19.85
2023-08-11T23:50:20.095Z,19.73
2023-08-11T23:52:46.679Z,19.70
2023-08-11T23:55:13.606Z,19.70
2023-08-11T23:57:40.265Z,19.66
